Currently 64°F in Beaumont, California, USA
64°F
64°F / 48°F
5 mph S
0.00"
Saturday, September 23, 2017 12:59 PM PDT

Beaumont, California Weather Summary
Last 36 Hours

Temperature Winds Hourly Humidity Dewpoint
Time Report Norm Report Norm Max Gusts Precip. Rpt. Norm Rpt. Norm Pressure
1Sat 12:59 PM  64.2°F  80°F  5 mph S  5 mph  12 mph  0.00"  44%  36%  41°F  49°F  29.95"
2Sat 12:58 PM  64.2°F  80°F  5 mph SE  5 mph  12 mph  ----  45%  36%  42°F  49°F  29.95"
Sat 12:00 PM  60.6°F  78°F  2 mph S  5 mph  12 mph  0.00"  56%  38%  44°F  50°F  29.95"
Sat 11:00 AM  56.7°F  77°F  3 mph SW  5 mph  12 mph  0.00"  64%  41%  44°F  50°F  29.96"
Sat 10:00 AM  52.9°F  75°F  5 mph SE  4 mph  8 mph  0.00"  75%  44%  45°F  51°F  29.96"
Sat 09:00 AM  49.5°F  72°F  4 mph SE  3 mph  6 mph  0.00"  87%  48%  46°F  50°F  29.96"
Sat 08:00 AM  48.0°F  70°F  1 mph SW  2 mph  3 mph  0.00"  92%  50%  46°F  50°F  29.95"
3Sat 07:44 AM  47.8°F  69°F  1 mph SW  2 mph  3 mph  ----  92%  50%  46°F  49°F  29.94"
Sat 07:00 AM  48.0°F  67°F  calm  2 mph  5 mph  0.00"  93%  51%  46°F  48°F  29.93"
Sat 06:00 AM  48.4°F  67°F  calm  2 mph  3 mph  0.00"  93%  52%  46°F  48°F  29.93"
Sat 05:00 AM  48.6°F  67°F  calm  2 mph  3 mph  0.00"  93%  53%  47°F  48°F  29.92"
Sat 04:00 AM  49.1°F  67°F  calm  2 mph  3 mph  0.00"  91%  53%  46°F  49°F  29.91"
Sat 03:00 AM  48.9°F  67°F  calm  2 mph  2 mph  0.00"  89%  54%  46°F  49°F  29.92"
Sat 02:00 AM  48.9°F  67°F  calm  2 mph  3 mph  0.00"  90%  54%  46°F  49°F  29.92"
Sat 01:00 AM  49.1°F  67°F  1 mph W  2 mph  7 mph  0.00"  89%  54%  46°F  49°F  29.92"
Sat 12:00 AM  51.1°F  68°F  calm  2 mph  8 mph  0.00"  84%  54%  46°F  50°F  29.93"
Fri 11:00 PM  50.5°F  69°F  1 mph E  2 mph  8 mph  0.00"  87%  52%  47°F  50°F  29.93"
Fri 10:00 PM  50.5°F  70°F  calm  2 mph  9 mph  0.00"  84%  51%  46°F  50°F  29.93"
Fri 09:00 PM  52.2°F  71°F  2 mph S  2 mph  17 mph  0.00"  75%  49%  44°F  50°F  29.93"
Fri 08:00 PM  54.3°F  73°F  7 mph W  3 mph  15 mph  0.00"  71%  47%  45°F  51°F  29.92"
Fri 07:00 PM  57.4°F  75°F  2 mph NW  3 mph  8 mph  0.00"  55%  44%  41°F  51°F  29.91"
Fri 06:00 PM  61.3°F  78°F  2 mph SW  4 mph  8 mph  0.00"  42%  39%  37°F  50°F  29.91"
Fri 05:00 PM  62.8°F  80°F  2 mph SW  4 mph  12 mph  0.00"  39%  35%  36°F  50°F  29.91"
Fri 04:00 PM  62.4°F  82°F  6 mph W  5 mph  12 mph  0.00"  41%  34%  37°F  50°F  29.92"
Fri 03:00 PM  62.1°F  82°F  2 mph SW  4 mph  14 mph  0.00"  46%  34%  40°F  49°F  29.93"
Fri 02:00 PM  61.2°F  81°F  2 mph SW  5 mph  13 mph  0.00"  47%  35%  40°F  50°F  29.95"
Fri 01:00 PM  60.3°F  80°F  3 mph S  5 mph  14 mph  0.00"  50%  37%  41°F  51°F  29.97"
Fri 12:00 PM  57.4°F  79°F  3 mph S  5 mph  9 mph  0.00"  60%  39%  43°F  51°F  29.98"
Fri 11:00 AM  53.8°F  77°F  5 mph S  4 mph  12 mph  0.00"  68%  41%  43°F  51°F  29.99"
Fri 10:00 AM  51.1°F  75°F  1 mph W  4 mph  8 mph  0.00"  76%  45%  43°F  51°F  30.00"
Fri 09:00 AM  48.9°F  73°F  1 mph SW  3 mph  9 mph  0.00"  85%  48%  44°F  51°F  29.99"
Fri 08:00 AM  46.8°F  71°F  calm  2 mph  3 mph  0.00"  89%  50%  44°F  50°F  29.98"
Fri 07:00 AM  46.4°F  68°F  calm  2 mph  3 mph  0.00"  90%  51%  44°F  49°F  29.96"
Fri 06:00 AM  46.2°F  67°F  calm  2 mph  3 mph  0.00"  89%  52%  43°F  48°F  29.96"
Fri 05:00 AM  45.9°F  67°F  calm  2 mph  5 mph  0.00"  89%  53%  43°F  49°F  29.94"
Fri 04:00 AM  46.2°F  67°F  calm  2 mph  3 mph  0.00"  92%  53%  44°F  49°F  29.94"
Fri 03:00 AM  46.9°F  68°F  calm  2 mph  5 mph  0.00"  91%  53%  44°F  49°F  29.93"
Fri 02:00 AM  47.1°F  67°F  calm  2 mph  8 mph  0.00"  90%  54%  44°F  50°F  29.94"
Fri 01:00 AM  47.8°F  68°F  1 mph SW  2 mph  7 mph  0.00"  88%  55%  44°F  50°F  29.94"

  1. Current weather data. No green row appears if the current weather data is also the high or low for the current day.
  2. High temperature for the current day.
  3. Low temperature for the current day.

The Beaumont, California weather pages are a service of WeatherCurrents. Cherry Valley is located in northern Riverside County, California, a community of the northern part of Beaumont, along the Interstate 10 highway, in the San Gorgonio pass area, between the communities of Calimesa, Banning.
Copyright ©Sat Sep 23 13:01:12 PDT 2017  WeatherCurrents. All rights reserved. - Submit questions and comments - Privacy Policy

This page automatically refreshes every 10 minutes.